createdAt,value
2019-02-17T00:00:00.747Z,8.90
2019-02-17T00:02:27.059Z,8.80
2019-02-17T00:04:53.260Z,8.80
2019-02-17T00:07:19.480Z,8.90
2019-02-17T00:09:46.012Z,8.90
2019-02-17T00:12:12.312Z,8.80
2019-02-17T00:14:38.539Z,8.90
2019-02-17T00:17:05.059Z,8.70
2019-02-17T00:19:31.267Z,8.70
2019-02-17T00:21:57.590Z,8.60
2019-02-17T00:24:23.816Z,8.60
2019-02-17T00:26:50.027Z,8.60
2019-02-17T00:29:16.283Z,8.60
2019-02-17T00:31:42.519Z,8.50
2019-02-17T00:34:08.724Z,8.40
2019-02-17T00:36:34.973Z,8.40
2019-02-17T00:39:01.221Z,8.40
2019-02-17T00:41:27.560Z,8.40
2019-02-17T00:43:53.863Z,8.50
2019-02-17T00:46:20.080Z,8.50
2019-02-17T00:48:46.326Z,8.50
2019-02-17T00:51:12.500Z,8.40
2019-02-17T00:53:38.725Z,8.30
2019-02-17T00:56:04.932Z,8.30
2019-02-17T00:58:31.295Z,8.30
2019-02-17T01:00:57.557Z,8.30
2019-02-17T01:03:23.884Z,8.30
2019-02-17T01:05:50.075Z,8.30
2019-02-17T01:08:16.349Z,8.30
2019-02-17T01:10:42.551Z,8.30
2019-02-17T01:13:08.791Z,8.30
2019-02-17T01:15:35.008Z,8.30
2019-02-17T01:18:01.223Z,8.30
2019-02-17T01:20:27.546Z,8.30
2019-02-17T01:22:53.814Z,8.30
2019-02-17T01:25:20.343Z,8.30
2019-02-17T01:27:46.652Z,8.30
2019-02-17T01:30:13.374Z,8.20
2019-02-17T01:32:39.792Z,8.20
2019-02-17T01:35:06.349Z,8.20
2019-02-17T01:37:32.865Z,8.10
2019-02-17T01:39:59.059Z,8.10
2019-02-17T01:42:25.367Z,8.10
2019-02-17T01:44:53.454Z,7.90
2019-02-17T01:47:19.795Z,7.80
2019-02-17T01:49:46.055Z,7.80
2019-02-17T01:52:12.363Z,7.80
2019-02-17T01:54:38.577Z,7.80
2019-02-17T01:57:04.793Z,7.80
2019-02-17T01:59:31.099Z,7.70
2019-02-17T02:01:57.468Z,7.60
2019-02-17T02:04:23.707Z,7.80
2019-02-17T02:06:49.902Z,7.80
2019-02-17T02:09:16.108Z,7.90
2019-02-17T02:11:42.348Z,7.90
2019-02-17T02:14:08.609Z,8.10
2019-02-17T02:16:34.885Z,7.90
2019-02-17T02:19:01.176Z,7.90
2019-02-17T02:21:27.392Z,7.90
2019-02-17T02:23:53.583Z,7.80
2019-02-17T02:26:19.853Z,7.90
2019-02-17T02:28:46.062Z,7.80
2019-02-17T02:31:12.403Z,7.80
2019-02-17T02:33:38.704Z,7.80
2019-02-17T02:36:04.914Z,7.80
2019-02-17T02:38:31.120Z,7.80
2019-02-17T02:40:57.443Z,7.80
2019-02-17T02:43:23.666Z,7.80
2019-02-17T02:45:49.992Z,7.80
2019-02-17T02:48:16.191Z,7.80
2019-02-17T02:50:42.412Z,7.70
2019-02-17T02:53:08.615Z,7.80
2019-02-17T02:55:35.034Z,7.70
2019-02-17T02:58:01.218Z,7.50
2019-02-17T03:00:27.508Z,7.50
2019-02-17T03:02:53.723Z,7.30
2019-02-17T03:05:20.027Z,7.40
2019-02-17T03:07:46.262Z,7.40
2019-02-17T03:10:12.473Z,7.40
2019-02-17T03:12:38.683Z,7.60
2019-02-17T03:15:06.591Z,7.40
2019-02-17T03:17:32.890Z,7.50
2019-02-17T03:19:59.099Z,7.40
2019-02-17T03:22:25.489Z,7.30
2019-02-17T03:24:51.703Z,7.30
2019-02-17T03:27:17.911Z,7.30
2019-02-17T03:29:44.133Z,7.40
2019-02-17T03:32:10.350Z,7.40
2019-02-17T03:34:36.565Z,7.40
2019-02-17T03:37:02.880Z,7.40
2019-02-17T03:39:29.279Z,7.40
2019-02-17T03:41:55.672Z,7.40
2019-02-17T03:44:21.868Z,7.40
2019-02-17T03:46:48.070Z,7.40
2019-02-17T03:49:14.259Z,7.30
2019-02-17T03:51:40.483Z,7.30
2019-02-17T03:54:06.711Z,7.20
2019-02-17T03:56:33.026Z,7.20
2019-02-17T03:58:59.340Z,7.20
2019-02-17T04:01:25.658Z,7.20
2019-02-17T04:03:51.934Z,7.30
2019-02-17T04:06:18.136Z,7.10
2019-02-17T04:08:44.369Z,7.00
2019-02-17T04:11:10.592Z,6.90
2019-02-17T04:13:36.795Z,6.90
2019-02-17T04:16:03.002Z,6.80
2019-02-17T04:18:29.198Z,6.80
2019-02-17T04:20:55.434Z,6.80
2019-02-17T04:23:30.772Z,6.80
2019-02-17T04:25:49.719Z,6.80
2019-02-17T04:28:15.913Z,6.80
2019-02-17T04:30:42.151Z,6.80
2019-02-17T04:33:08.345Z,6.80
2019-02-17T04:35:34.555Z,6.80
2019-02-17T04:38:00.758Z,6.80
2019-02-17T04:40:26.952Z,6.80
2019-02-17T04:42:53.164Z,6.80
2019-02-17T04:45:19.363Z,6.80
2019-02-17T04:47:45.659Z,6.80
2019-02-17T04:50:12.077Z,6.80
2019-02-17T04:52:38.412Z,6.70
2019-02-17T04:55:06.136Z,6.60
2019-02-17T04:57:32.352Z,6.60
2019-02-17T04:59:58.670Z,6.40
2019-02-17T05:02:24.969Z,6.30
2019-02-17T05:04:51.154Z,6.30
2019-02-17T05:07:17.380Z,6.30
2019-02-17T05:09:43.584Z,6.30
2019-02-17T05:12:09.775Z,6.30
2019-02-17T05:14:35.980Z,6.30
2019-02-17T05:17:02.182Z,6.30
2019-02-17T05:19:28.391Z,6.30
2019-02-17T05:21:54.600Z,6.30
2019-02-17T05:24:21.008Z,6.30
2019-02-17T05:26:47.200Z,6.30
2019-02-17T05:29:13.404Z,6.30
2019-02-17T05:31:39.637Z,6.40
2019-02-17T05:34:05.859Z,6.40
2019-02-17T05:36:32.083Z,6.30
2019-02-17T05:38:58.377Z,6.40
2019-02-17T05:41:24.600Z,6.40
2019-02-17T05:43:50.814Z,6.30
2019-02-17T05:46:17.120Z,6.30
2019-02-17T05:48:43.331Z,6.20
2019-02-17T05:51:09.511Z,6.20
2019-02-17T05:53:35.744Z,6.20
2019-02-17T05:56:02.052Z,6.10
2019-02-17T05:58:28.361Z,6.20
2019-02-17T06:01:03.347Z,6.10
2019-02-17T06:03:22.692Z,6.10
2019-02-17T06:05:48.978Z,6.30
2019-02-17T06:08:15.168Z,6.10
2019-02-17T06:10:41.375Z,6.10
2019-02-17T06:13:07.600Z,6.20
2019-02-17T06:15:33.820Z,6.10
2019-02-17T06:18:00.019Z,6.10
2019-02-17T06:20:26.230Z,6.10
2019-02-17T06:22:52.479Z,6.10
2019-02-17T06:25:18.690Z,6.20
2019-02-17T06:27:44.894Z,6.30
2019-02-17T06:30:11.232Z,6.20
2019-02-17T06:32:37.430Z,6.10
2019-02-17T06:35:04.167Z,6.00
2019-02-17T06:37:30.451Z,6.00
2019-02-17T06:39:56.814Z,6.10
2019-02-17T06:42:23.183Z,6.00
2019-02-17T06:44:49.488Z,6.00
2019-02-17T06:47:17.599Z,5.80
2019-02-17T06:49:43.919Z,5.80
2019-02-17T06:52:10.142Z,5.80
2019-02-17T06:54:37.262Z,5.80
2019-02-17T06:57:05.383Z,5.80
2019-02-17T06:59:31.595Z,5.90
2019-02-17T07:01:57.967Z,5.90
2019-02-17T07:04:26.143Z,6.00
2019-02-17T07:06:54.261Z,6.00
2019-02-17T07:09:20.565Z,6.00
2019-02-17T07:11:46.800Z,6.00
2019-02-17T07:14:12.986Z,5.90
2019-02-17T07:16:39.230Z,6.10
2019-02-17T07:19:05.539Z,6.00
2019-02-17T07:21:31.757Z,6.00
2019-02-17T07:23:57.973Z,6.10
2019-02-17T07:26:24.347Z,6.20
2019-02-17T07:28:50.728Z,6.20
2019-02-17T07:31:16.951Z,6.20
2019-02-17T07:33:43.179Z,6.20
2019-02-17T07:36:09.494Z,6.30
2019-02-17T07:38:35.712Z,6.30
2019-02-17T07:41:01.911Z,6.40
2019-02-17T07:43:28.222Z,6.30
2019-02-17T07:45:54.561Z,6.30
2019-02-17T07:48:20.796Z,6.40
2019-02-17T07:50:47.011Z,6.40
2019-02-17T07:53:13.253Z,6.50
2019-02-17T07:55:39.628Z,6.60
2019-02-17T07:58:06.095Z,6.70
2019-02-17T08:00:32.415Z,6.80
2019-02-17T08:02:58.615Z,6.80
2019-02-17T08:05:24.886Z,6.90
2019-02-17T08:07:51.307Z,6.90
2019-02-17T08:10:17.749Z,7.00
2019-02-17T08:12:44.055Z,7.10
2019-02-17T08:15:10.387Z,7.20
2019-02-17T08:17:36.590Z,7.30
2019-02-17T08:20:05.306Z,7.40
2019-02-17T08:22:31.651Z,7.60
2019-02-17T08:24:57.967Z,7.70
2019-02-17T08:27:24.166Z,7.90
2019-02-17T08:29:53.437Z,8.00
2019-02-17T08:32:19.763Z,8.20
2019-02-17T08:34:48.785Z,8.40
2019-02-17T08:37:15.052Z,8.70
2019-02-17T08:39:41.263Z,8.80
2019-02-17T08:42:07.694Z,8.90
2019-02-17T08:44:33.915Z,9.00
2019-02-17T08:47:00.242Z,9.10
2019-02-17T08:49:27.628Z,9.30
2019-02-17T08:51:53.956Z,9.40
2019-02-17T08:54:20.191Z,9.70
2019-02-17T08:56:46.387Z,9.90
2019-02-17T08:59:12.638Z,10.10
2019-02-17T09:01:40.450Z,10.40
2019-02-17T09:04:06.762Z,10.70
2019-02-17T09:06:32.996Z,10.90
2019-02-17T09:08:59.202Z,11.30
2019-02-17T09:11:25.486Z,11.70
2019-02-17T09:13:51.752Z,12.30
2019-02-17T09:16:18.319Z,12.50
2019-02-17T09:18:44.573Z,12.50
2019-02-17T09:21:10.805Z,12.50
2019-02-17T09:23:37.056Z,12.60
2019-02-17T09:26:03.338Z,12.80
2019-02-17T09:28:29.561Z,13.00
2019-02-17T09:30:55.946Z,13.20
2019-02-17T09:33:22.240Z,13.70
2019-02-17T09:35:48.473Z,14.20
2019-02-17T09:38:17.058Z,14.40
2019-02-17T09:40:42.855Z,14.80
2019-02-17T09:43:09.158Z,15.30
2019-02-17T09:45:35.459Z,15.70
2019-02-17T09:48:01.831Z,16.20
2019-02-17T09:50:28.075Z,16.80
2019-02-17T09:52:54.283Z,17.20
2019-02-17T09:55:20.526Z,18.00
2019-02-17T09:57:46.940Z,19.80
2019-02-17T10:00:14.330Z,21.80
2019-02-17T10:02:40.835Z,23.70
2019-02-17T10:05:08.960Z,25.10
2019-02-17T10:07:35.151Z,26.00
2019-02-17T10:10:01.592Z,26.70
2019-02-17T10:12:27.875Z,27.30
2019-02-17T10:14:54.253Z,27.60
2019-02-17T10:17:20.475Z,28.20
2019-02-17T10:19:46.790Z,28.60
2019-02-17T10:22:13.200Z,29.30
2019-02-17T10:24:39.446Z,29.80
2019-02-17T10:27:05.796Z,29.70
2019-02-17T10:29:31.991Z,29.90
2019-02-17T10:31:58.434Z,30.20
2019-02-17T10:34:24.775Z,30.60
2019-02-17T10:36:51.092Z,30.80
2019-02-17T10:39:17.361Z,31.10
2019-02-17T10:41:43.689Z,31.60
2019-02-17T10:44:10.312Z,31.80
2019-02-17T10:46:36.531Z,31.70
2019-02-17T10:49:02.948Z,31.60
2019-02-17T10:51:29.208Z,31.80
2019-02-17T10:53:55.550Z,31.80
2019-02-17T10:56:21.890Z,31.80
2019-02-17T10:58:48.206Z,32.00
2019-02-17T11:01:14.571Z,31.80
2019-02-17T11:03:44.583Z,32.10
2019-02-17T11:06:10.842Z,32.10
2019-02-17T11:08:37.361Z,32.50
2019-02-17T11:11:03.727Z,32.70
2019-02-17T11:13:30.236Z,33.10
2019-02-17T11:15:56.449Z,33.80
2019-02-17T11:18:22.774Z,34.20
2019-02-17T11:20:48.984Z,34.60
2019-02-17T11:23:15.280Z,34.80
2019-02-17T11:25:41.533Z,35.00
2019-02-17T11:28:07.915Z,35.00
2019-02-17T11:30:34.356Z,35.30
2019-02-17T11:33:00.690Z,35.70
2019-02-17T11:35:26.912Z,36.30
2019-02-17T11:37:53.216Z,36.60
2019-02-17T11:40:19.528Z,37.20
2019-02-17T11:42:45.802Z,37.20
2019-02-17T11:45:16.616Z,36.10
2019-02-17T11:47:42.922Z,36.00
2019-02-17T11:50:09.376Z,35.90
2019-02-17T11:52:35.695Z,36.20
2019-02-17T11:55:04.313Z,36.20
2019-02-17T11:57:30.570Z,36.30
2019-02-17T11:59:56.865Z,36.00
2019-02-17T12:02:25.321Z,36.10
2019-02-17T12:04:51.405Z,35.70
2019-02-17T12:07:17.596Z,34.50
2019-02-17T12:09:43.845Z,33.40
2019-02-17T12:12:10.063Z,32.80
2019-02-17T12:14:36.263Z,32.50
2019-02-17T12:17:02.684Z,32.60
2019-02-17T12:19:29.076Z,32.70
2019-02-17T12:22:00.168Z,33.40
2019-02-17T12:24:28.318Z,32.80
2019-02-17T12:26:59.296Z,32.10
2019-02-17T12:29:30.294Z,31.50
2019-02-17T12:31:57.836Z,31.40
2019-02-17T12:34:24.249Z,31.70
2019-02-17T12:36:50.468Z,31.50
2019-02-17T12:39:16.803Z,30.50
2019-02-17T12:41:43.227Z,28.80
2019-02-17T12:44:09.457Z,27.40
2019-02-17T12:46:35.771Z,26.20
2019-02-17T12:49:02.007Z,25.00
2019-02-17T12:51:28.278Z,24.00
2019-02-17T12:53:54.602Z,23.20
2019-02-17T12:56:20.844Z,22.50
2019-02-17T12:58:47.061Z,22.10
2019-02-17T13:01:13.658Z,21.60
2019-02-17T13:03:40.220Z,21.20
2019-02-17T13:06:06.498Z,21.10
2019-02-17T13:08:32.792Z,21.00
2019-02-17T13:10:59.085Z,21.00
2019-02-17T13:13:25.340Z,20.90
2019-02-17T13:15:51.697Z,20.90
2019-02-17T13:18:17.994Z,21.00
2019-02-17T13:20:44.347Z,20.60
2019-02-17T13:23:10.697Z,20.40
2019-02-17T13:25:38.305Z,20.20
2019-02-17T13:28:04.831Z,20.20
2019-02-17T13:30:31.136Z,20.30
2019-02-17T13:32:57.459Z,20.30
2019-02-17T13:35:23.799Z,20.20
2019-02-17T13:37:50.207Z,20.30
2019-02-17T13:40:16.627Z,20.40
2019-02-17T13:42:42.967Z,20.40
2019-02-17T13:45:13.323Z,20.50
2019-02-17T13:47:39.530Z,20.70
2019-02-17T13:50:08.383Z,20.50
2019-02-17T13:52:34.731Z,20.40
2019-02-17T13:55:00.977Z,20.30
2019-02-17T13:57:27.368Z,20.30
2019-02-17T13:59:53.588Z,20.30
2019-02-17T14:02:19.842Z,20.20
2019-02-17T14:04:46.157Z,20.10
2019-02-17T14:07:12.412Z,20.20
2019-02-17T14:09:38.624Z,20.30
2019-02-17T14:12:04.831Z,20.30
2019-02-17T14:14:31.064Z,20.30
2019-02-17T14:16:57.298Z,20.30
2019-02-17T14:19:23.727Z,20.30
2019-02-17T14:21:49.959Z,20.30
2019-02-17T14:24:16.162Z,20.30
2019-02-17T14:26:42.388Z,20.40
2019-02-17T14:29:08.609Z,20.60
2019-02-17T14:31:34.911Z,20.60
2019-02-17T14:34:01.162Z,20.30
2019-02-17T14:36:27.483Z,20.20
2019-02-17T14:38:53.691Z,20.10
2019-02-17T14:41:19.996Z,20.10
2019-02-17T14:43:46.221Z,20.20
2019-02-17T14:46:12.463Z,20.10
2019-02-17T14:48:38.660Z,20.10
2019-02-17T14:51:04.976Z,20.10
2019-02-17T14:53:31.303Z,20.10
2019-02-17T14:55:57.706Z,20.10
2019-02-17T14:58:24.050Z,20.20
2019-02-17T15:00:50.650Z,20.20
2019-02-17T15:03:17.184Z,20.10
2019-02-17T15:05:43.831Z,20.10
2019-02-17T15:08:10.264Z,20.20
2019-02-17T15:10:36.730Z,20.30
2019-02-17T15:13:03.301Z,20.30
2019-02-17T15:15:29.818Z,20.30
2019-02-17T15:17:56.095Z,20.40
2019-02-17T15:20:23.873Z,20.50
2019-02-17T15:22:50.316Z,20.40
2019-02-17T15:25:16.737Z,20.30
2019-02-17T15:27:43.032Z,20.30
2019-02-17T15:30:11.841Z,20.30
2019-02-17T15:32:38.422Z,20.20
2019-02-17T15:35:05.330Z,20.20
2019-02-17T15:37:31.826Z,20.10
2019-02-17T15:39:58.276Z,20.10
2019-02-17T15:42:24.676Z,19.90
2019-02-17T15:44:51.159Z,19.80
2019-02-17T15:47:19.263Z,19.60
2019-02-17T15:49:46.022Z,19.50
2019-02-17T15:52:12.315Z,19.30
2019-02-17T15:54:38.637Z,19.10
2019-02-17T15:57:04.875Z,18.90
2019-02-17T15:59:31.279Z,18.70
2019-02-17T16:01:57.540Z,18.60
2019-02-17T16:04:28.472Z,18.60
2019-02-17T16:06:52.035Z,18.50
2019-02-17T16:09:18.361Z,18.30
2019-02-17T16:11:44.592Z,18.10
2019-02-17T16:14:10.911Z,18.10
2019-02-17T16:16:37.151Z,18.00
2019-02-17T16:19:03.609Z,17.90
2019-02-17T16:21:29.813Z,17.70
2019-02-17T16:23:56.128Z,17.60
2019-02-17T16:26:22.580Z,17.50
2019-02-17T16:28:48.808Z,17.40
2019-02-17T16:31:15.119Z,17.30
2019-02-17T16:33:41.391Z,17.20
2019-02-17T16:36:07.710Z,17.10
2019-02-17T16:38:33.976Z,17.00
2019-02-17T16:41:00.181Z,16.90
2019-02-17T16:43:26.597Z,16.80
2019-02-17T16:45:52.799Z,16.70
2019-02-17T16:48:19.050Z,16.60
2019-02-17T16:50:45.280Z,16.50
2019-02-17T16:53:11.738Z,16.40
2019-02-17T16:55:38.072Z,16.30
2019-02-17T16:58:04.412Z,16.20
2019-02-17T17:00:30.804Z,16.10
2019-02-17T17:02:57.122Z,15.90
2019-02-17T17:05:24.165Z,15.80
2019-02-17T17:07:50.712Z,15.60
2019-02-17T17:10:17.026Z,15.50
2019-02-17T17:12:43.340Z,15.40
2019-02-17T17:15:10.036Z,15.30
2019-02-17T17:17:36.499Z,15.20
2019-02-17T17:20:06.317Z,15.10
2019-02-17T17:22:32.695Z,15.00
2019-02-17T17:24:58.979Z,15.00
2019-02-17T17:27:25.368Z,14.80
2019-02-17T17:29:51.581Z,14.70
2019-02-17T17:32:17.829Z,14.70
2019-02-17T17:34:44.176Z,14.60
2019-02-17T17:37:10.396Z,14.60
2019-02-17T17:39:36.667Z,14.50
2019-02-17T17:42:03.013Z,14.40
2019-02-17T17:44:29.362Z,14.40
2019-02-17T17:46:55.688Z,14.40
2019-02-17T17:49:21.980Z,14.40
2019-02-17T17:51:48.279Z,14.40
2019-02-17T17:54:14.633Z,14.40
2019-02-17T17:56:41.014Z,14.30
2019-02-17T17:59:07.343Z,14.30
2019-02-17T18:01:33.558Z,14.20
2019-02-17T18:03:59.832Z,14.10
2019-02-17T18:06:26.160Z,14.00
2019-02-17T18:08:52.350Z,13.90
2019-02-17T18:11:18.745Z,13.80
2019-02-17T18:13:45.010Z,13.80
2019-02-17T18:16:11.234Z,13.70
2019-02-17T18:18:37.466Z,13.80
2019-02-17T18:21:04.001Z,13.70
2019-02-17T18:23:30.280Z,13.60
2019-02-17T18:25:56.569Z,13.60
2019-02-17T18:28:22.910Z,13.50
2019-02-17T18:30:49.149Z,13.50
2019-02-17T18:33:15.499Z,13.50
2019-02-17T18:35:41.862Z,13.50
2019-02-17T18:38:08.117Z,13.40
2019-02-17T18:40:44.483Z,13.40
2019-02-17T18:43:02.716Z,13.30
2019-02-17T18:45:29.039Z,13.30
2019-02-17T18:47:55.248Z,13.30
2019-02-17T18:50:22.102Z,13.30
2019-02-17T18:52:48.460Z,13.20
2019-02-17T18:55:14.768Z,13.20
2019-02-17T18:57:49.385Z,13.20
2019-02-17T19:00:20.894Z,13.20
2019-02-17T19:02:47.217Z,13.20
2019-02-17T19:05:13.752Z,13.20
2019-02-17T19:07:40.175Z,13.20
2019-02-17T19:10:11.926Z,13.20
2019-02-17T19:12:38.199Z,13.10
2019-02-17T19:15:07.870Z,13.10
2019-02-17T19:17:34.236Z,13.00
2019-02-17T19:20:00.673Z,12.90
2019-02-17T19:22:27.106Z,12.70
2019-02-17T19:24:53.372Z,12.40
2019-02-17T19:27:19.740Z,12.30
2019-02-17T19:29:46.061Z,12.20
2019-02-17T19:32:12.332Z,12.30
2019-02-17T19:34:38.689Z,12.20
2019-02-17T19:37:05.037Z,12.10
2019-02-17T19:39:31.383Z,12.10
2019-02-17T19:41:57.613Z,12.10
2019-02-17T19:44:23.992Z,12.10
2019-02-17T19:46:50.385Z,12.10
2019-02-17T19:49:16.774Z,12.10
2019-02-17T19:51:43.113Z,12.20
2019-02-17T19:54:09.554Z,12.10
2019-02-17T19:56:35.913Z,12.20
2019-02-17T19:59:02.297Z,12.10
2019-02-17T20:01:28.731Z,12.10
2019-02-17T20:03:59.943Z,12.10
2019-02-17T20:06:26.323Z,12.10
2019-02-17T20:08:52.768Z,12.10
2019-02-17T20:11:19.079Z,12.10
2019-02-17T20:13:45.454Z,12.10
2019-02-17T20:16:11.896Z,12.10
2019-02-17T20:18:38.212Z,12.10
2019-02-17T20:21:04.564Z,12.10
2019-02-17T20:23:30.894Z,12.10
2019-02-17T20:25:57.981Z,12.00
2019-02-17T20:28:32.640Z,12.00
2019-02-17T20:30:52.544Z,11.90
2019-02-17T20:33:19.084Z,11.90
2019-02-17T20:35:45.533Z,11.80
2019-02-17T20:38:11.788Z,11.80
2019-02-17T20:40:38.205Z,11.70
2019-02-17T20:43:04.563Z,11.70
2019-02-17T20:45:30.870Z,11.70
2019-02-17T20:47:57.287Z,11.60
2019-02-17T20:50:23.627Z,11.70
2019-02-17T20:52:50.040Z,11.70
2019-02-17T20:55:16.570Z,11.60
2019-02-17T20:57:42.927Z,11.60
2019-02-17T21:00:13.915Z,11.50
2019-02-17T21:02:40.213Z,11.60
2019-02-17T21:05:08.052Z,11.60
2019-02-17T21:07:34.379Z,11.60
2019-02-17T21:10:00.595Z,11.60
2019-02-17T21:12:27.185Z,11.50
2019-02-17T21:14:53.437Z,11.40
2019-02-17T21:17:19.876Z,11.40
2019-02-17T21:19:46.252Z,11.40
2019-02-17T21:22:12.559Z,11.40
2019-02-17T21:24:40.087Z,11.40
2019-02-17T21:27:06.307Z,11.30
2019-02-17T21:29:32.843Z,11.30
2019-02-17T21:31:59.072Z,11.20
2019-02-17T21:34:25.350Z,11.20
2019-02-17T21:36:51.694Z,11.20
2019-02-17T21:39:17.909Z,11.20
2019-02-17T21:41:44.273Z,11.20
2019-02-17T21:44:10.502Z,11.20
2019-02-17T21:46:36.715Z,11.20
2019-02-17T21:49:03.015Z,11.20
2019-02-17T21:51:29.288Z,11.10
2019-02-17T21:53:55.531Z,11.10
2019-02-17T21:56:21.808Z,11.10
2019-02-17T21:58:49.507Z,11.10
2019-02-17T22:01:15.968Z,10.90
2019-02-17T22:03:42.203Z,10.80
2019-02-17T22:06:08.533Z,10.70
2019-02-17T22:08:34.916Z,10.60
2019-02-17T22:11:01.347Z,10.60
2019-02-17T22:13:27.767Z,10.70
2019-02-17T22:15:53.962Z,10.70
2019-02-17T22:18:20.287Z,10.60
2019-02-17T22:20:46.484Z,10.60
2019-02-17T22:23:12.804Z,10.60
2019-02-17T22:25:39.168Z,10.50
2019-02-17T22:28:05.541Z,10.60
2019-02-17T22:30:31.781Z,10.60
2019-02-17T22:32:58.084Z,10.50
2019-02-17T22:35:24.344Z,10.40
2019-02-17T22:37:50.584Z,10.40
2019-02-17T22:40:16.794Z,10.50
2019-02-17T22:42:43.158Z,10.40
2019-02-17T22:45:10.464Z,10.40
2019-02-17T22:47:36.800Z,10.40
2019-02-17T22:50:07.539Z,10.40
2019-02-17T22:52:33.952Z,10.30
2019-02-17T22:55:00.311Z,10.30
2019-02-17T22:57:26.495Z,10.30
2019-02-17T22:59:52.747Z,10.30
2019-02-17T23:02:19.401Z,10.40
2019-02-17T23:04:45.800Z,10.40
2019-02-17T23:07:12.110Z,10.40
2019-02-17T23:09:38.453Z,10.40
2019-02-17T23:12:04.995Z,10.30
2019-02-17T23:14:31.299Z,10.30
2019-02-17T23:16:57.528Z,10.20
2019-02-17T23:19:23.718Z,10.20
2019-02-17T23:21:50.027Z,10.20
2019-02-17T23:24:16.946Z,10.30
2019-02-17T23:26:43.277Z,10.30
2019-02-17T23:29:09.484Z,10.20
2019-02-17T23:31:35.779Z,10.20
2019-02-17T23:34:02.004Z,10.20
2019-02-17T23:36:28.354Z,10.30
2019-02-17T23:38:54.560Z,10.30
2019-02-17T23:41:20.763Z,10.20
2019-02-17T23:43:46.959Z,10.20
2019-02-17T23:46:13.162Z,10.20
2019-02-17T23:48:39.377Z,10.20
2019-02-17T23:51:05.695Z,10.20
2019-02-17T23:53:32.024Z,10.10
2019-02-17T23:55:58.215Z,10.10
2019-02-17T23:58:24.452Z,10.10
